Time;durP1;ratioP1;P1;durP2;ratioP2;P2;SDS_P1;SDS_P2;PMS_P1;PMS_P2;Temp;Humidity;BMP_temperature;BMP_pressure;BME280_temperature;BME280_humidity;BME280_pressure;Samples;Min_cycle;Max_cycle;Signal;HPM_P1;HPM_P2
2022/10/29 01:09:07;;;;;;;45.80;30.50;;;11.50;99.90;;;;;;5042554;28;20143;-46
2022/10/29 01:12:00;;;;;;;47.38;30.70;;;11.30;99.90;;;;;;5029563;28;20057;-46
2022/10/29 01:14:49;;;;;;;47.55;28.30;;;11.10;99.90;;;;;;5027074;28;20045;-46
2022/10/29 01:17:52;;;;;;;43.50;29.15;;;11.00;99.90;;;;;;5032506;28;20037;-47
2022/10/29 01:20:30;;;;;;;45.42;31.30;;;10.80;99.90;;;;;;5029347;28;20029;-46
2022/10/29 01:23:14;;;;;;;44.42;29.90;;;10.90;99.90;;;;;;5030484;28;20041;-47
2022/10/29 01:26:07;;;;;;;41.75;28.98;;;11.20;99.90;;;;;;5027817;28;20116;-46
2022/10/29 01:28:45;;;;;;;42.70;27.83;;;11.80;99.90;;;;;;5002227;28;20452;-47
2022/10/29 01:31:38;;;;;;;46.70;29.42;;;11.60;99.90;;;;;;5027581;28;20036;-47
2022/10/29 01:34:36;;;;;;;38.33;28.10;;;11.50;99.90;;;;;;5020257;28;20048;-47
2022/10/29 01:37:27;;;;;;;43.78;30.33;;;11.60;99.90;;;;;;5025170;28;20026;-47
2022/10/29 01:40:11;;;;;;;44.05;30.50;;;11.70;99.90;;;;;;4969213;28;20049;-47
2022/10/29 01:42:41;;;;;;;88.35;33.35;;;11.60;99.90;;;;;;4954349;28;20063;-46
2022/10/29 01:45:12;;;;;;;118.38;35.50;;;11.00;99.90;;;;;;4952983;28;20031;-47
2022/10/29 01:47:43;;;;;;;78.65;41.60;;;10.60;99.90;;;;;;4957111;28;20028;-47
2022/10/29 01:50:11;;;;;;;80.07;32.58;;;10.40;99.90;;;;;;4956240;28;20122;-47
2022/10/29 01:52:38;;;;;;;67.38;31.58;;;10.40;99.90;;;;;;4957440;28;20523;-47
2022/10/29 01:55:04;;;;;;;55.40;32.17;;;9.90;99.90;;;;;;4956217;28;20487;-47
2022/10/29 01:57:32;;;;;;;46.75;32.38;;;9.90;99.90;;;;;;4959289;28;20035;-47
2022/10/29 02:00:11;;;;;;;62.25;29.60;;;9.80;99.90;;;;;;4955631;28;20043;-47
2022/10/29 02:03:01;;;;;;;65.70;32.17;;;9.90;99.90;;;;;;4953718;28;20042;-47
2022/10/29 02:05:27;;;;;;;63.90;33.17;;;9.80;99.90;;;;;;4986169;28;20035;-47
2022/10/29 02:08:05;;;;;;;83.03;33.70;;;9.70;99.90;;;;;;4956891;28;20109;-47
2022/10/29 02:10:45;;;;;;;70.85;33.33;;;9.70;99.90;;;;;;4975420;28;20071;-46
2022/10/29 02:13:14;;;;;;;86.72;34.10;;;9.90;99.90;;;;;;4974081;28;20066;-47
2022/10/29 02:15:48;;;;;;;76.57;32.80;;;10.10;99.90;;;;;;4974810;28;20055;-47
2022/10/29 02:18:15;;;;;;;69.38;32.83;;;10.20;99.90;;;;;;5030116;28;20386;-47
2022/10/29 02:20:43;;;;;;;92.70;31.85;;;10.30;99.90;;;;;;5034648;28;20350;-47
2022/10/29 02:23:09;;;;;;;66.63;31.80;;;10.40;99.90;;;;;;5031919;28;20056;-46
2022/10/29 02:25:34;;;;;;;78.88;31.05;;;10.40;99.90;;;;;;5031673;28;20026;-47
2022/10/29 02:28:00;;;;;;;91.50;32.95;;;9.40;99.90;;;;;;5033168;28;20433;-46
2022/10/29 02:30:26;;;;;;;69.72;31.92;;;10.10;99.90;;;;;;5051325;28;20124;-46
2022/10/29 02:32:52;;;;;;;99.78;32.58;;;10.20;99.90;;;;;;5028339;28;20372;-47
2022/10/29 02:35:18;;;;;;;89.30;33.70;;;10.30;99.90;;;;;;5033667;28;20029;-47
2022/10/29 02:37:43;;;;;;;125.00;33.58;;;10.30;99.90;;;;;;5029747;28;20034;-46
2022/10/29 02:40:10;;;;;;;69.82;32.05;;;10.50;99.90;;;;;;5034869;28;20018;-47
2022/10/29 02:42:36;;;;;;;36.00;29.52;;;10.40;99.90;;;;;;5030887;28;20069;-47
2022/10/29 02:45:01;;;;;;;34.28;27.60;;;10.60;99.90;;;;;;5032599;28;20112;-47
2022/10/29 02:47:27;;;;;;;41.30;26.73;;;10.80;99.90;;;;;;5032377;28;20485;-46
2022/10/29 02:49:53;;;;;;;55.92;25.23;;;10.80;99.90;;;;;;5032387;28;20067;-46
2022/10/29 02:52:19;;;;;;;32.63;26.05;;;10.70;99.90;;;;;;5038535;28;20038;-47
2022/10/29 02:54:44;;;;;;;38.92;26.38;;;10.70;99.90;;;;;;5032262;28;20030;-46
2022/10/29 02:57:10;;;;;;;42.25;24.95;;;11.00;99.90;;;;;;5032904;28;20025;-47
2022/10/29 02:59:36;;;;;;;46.40;27.13;;;11.00;99.90;;;;;;5029535;28;20071;-47
2022/10/29 03:02:02;;;;;;;44.45;25.48;;;11.10;99.90;;;;;;5033767;28;20034;-47
2022/10/29 03:04:27;;;;;;;84.30;26.10;;;11.30;99.90;;;;;;5063272;28;20048;-47
2022/10/29 03:06:53;;;;;;;46.10;26.27;;;11.40;99.90;;;;;;5031859;28;20026;-46
2022/10/29 03:09:19;;;;;;;40.97;26.42;;;11.00;99.90;;;;;;5051580;28;20055;-47
2022/10/29 03:11:45;;;;;;;55.55;25.73;;;11.20;99.90;;;;;;5083106;28;20040;-46
2022/10/29 03:14:11;;;;;;;40.22;25.98;;;11.30;99.90;;;;;;5034523;28;20055;-47
2022/10/29 03:16:37;;;;;;;51.22;26.77;;;;;;;;;;5064551;28;20032;-47
2022/10/29 03:19:03;;;;;;;58.28;26.00;;;11.60;99.90;;;;;;5070209;28;20078;-46
2022/10/29 03:21:29;;;;;;;54.53;27.67;;;11.60;99.90;;;;;;5060663;28;20373;-46
2022/10/29 03:23:55;;;;;;;48.83;25.92;;;;;;;;;;5067635;28;20111;-46
2022/10/29 03:26:20;;;;;;;48.28;26.13;;;11.80;99.90;;;;;;5070181;28;20036;-47
2022/10/29 03:28:47;;;;;;;52.60;25.02;;;;;;;;;;5067779;28;20138;-48
2022/10/29 03:31:12;;;;;;;37.10;24.88;;;12.00;99.90;;;;;;5067087;28;20033;-47
2022/10/29 03:33:38;;;;;;;61.15;25.30;;;12.10;99.90;;;;;;5066166;28;20117;-47
2022/10/29 03:36:06;;;;;;;45.72;24.40;;;12.20;99.90;;;;;;5067750;28;20099;-47
2022/10/29 03:38:32;;;;;;;66.10;25.10;;;;;;;;;;5051802;28;20194;-47
2022/10/29 03:40:58;;;;;;;76.63;25.98;;;12.00;99.90;;;;;;5066456;28;20490;-46
2022/10/29 03:43:24;;;;;;;66.22;26.17;;;12.10;99.90;;;;;;5067852;28;20037;-46
2022/10/29 03:45:54;;;;;;;76.63;25.27;;;12.00;99.90;;;;;;5066814;28;20082;-46
2022/10/29 03:48:21;;;;;;;96.78;26.90;;;12.00;99.90;;;;;;5069396;28;20055;-47
2022/10/29 03:50:57;;;;;;;114.45;28.40;;;11.80;99.90;;;;;;5069356;28;20108;-46
2022/10/29 03:53:24;;;;;;;98.85;27.85;;;11.80;99.90;;;;;;5063959;28;20073;-46
2022/10/29 03:55:51;;;;;;;96.90;30.65;;;11.80;99.90;;;;;;5068219;28;20028;-46
2022/10/29 03:58:17;;;;;;;92.90;28.92;;;11.90;99.90;;;;;;5047688;28;20041;-46
2022/10/29 04:00:43;;;;;;;100.80;27.83;;;12.00;99.90;;;;;;5069688;28;20486;-46
2022/10/29 04:03:09;;;;;;;114.40;28.65;;;;;;;;;;5067618;28;20178;-46
2022/10/29 04:05:34;;;;;;;109.78;29.05;;;11.80;99.90;;;;;;5060864;28;20029;-46
2022/10/29 04:08:00;;;;;;;96.88;28.17;;;11.50;99.90;;;;;;5049884;28;20126;-46
2022/10/29 04:10:26;;;;;;;100.50;28.98;;;11.40;99.90;;;;;;5065111;28;20072;-46
2022/10/29 04:12:52;;;;;;;69.53;29.17;;;11.20;99.90;;;;;;5052102;28;20504;-46
2022/10/29 04:15:18;;;;;;;79.25;29.33;;;11.30;99.90;;;;;;5063763;28;20362;-46
2022/10/29 04:17:43;;;;;;;68.50;27.60;;;11.50;99.90;;;;;;5036676;28;20048;-46
2022/10/29 04:20:09;;;;;;;76.15;29.92;;;11.30;99.90;;;;;;5050914;28;20463;-46
2022/10/29 04:22:35;;;;;;;69.85;29.85;;;11.20;99.90;;;;;;5031436;28;20029;-46
2022/10/29 04:25:01;;;;;;;216.07;35.53;;;11.30;99.90;;;;;;5051235;28;20029;-47
2022/10/29 04:27:27;;;;;;;180.35;32.70;;;11.70;99.90;;;;;;5069734;28;20033;-46
2022/10/29 04:29:53;;;;;;;133.80;30.15;;;12.00;99.90;;;;;;5068931;28;20039;-46
2022/10/29 04:32:19;;;;;;;124.57;28.50;;;;;;;;;;5066866;28;20112;-46
2022/10/29 04:34:45;;;;;;;64.80;27.65;;;12.20;99.90;;;;;;5069735;28;20044;-46
2022/10/29 04:37:10;;;;;;;105.30;27.55;;;12.10;99.90;;;;;;5067724;28;20547;-45
2022/10/29 04:39:36;;;;;;;127.07;29.02;;;12.10;99.90;;;;;;5051895;28;20036;-46
2022/10/29 04:42:02;;;;;;;81.57;27.58;;;11.90;99.90;;;;;;5067200;28;20407;-47
2022/10/29 04:44:27;;;;;;;102.45;28.48;;;11.90;99.90;;;;;;5069829;28;20054;-47
2022/10/29 04:46:53;;;;;;;88.38;27.65;;;12.00;99.90;;;;;;5070659;28;20472;-46
2022/10/29 04:49:19;;;;;;;88.00;26.52;;;12.00;99.90;;;;;;5069760;28;20029;-46
2022/10/29 04:51:44;;;;;;;84.60;27.25;;;12.00;99.90;;;;;;5068539;28;20398;-47
2022/10/29 04:54:10;;;;;;;123.68;26.98;;;12.10;99.90;;;;;;5067706;28;20038;-46
2022/10/29 04:56:36;;;;;;;139.02;26.05;;;;;;;;;;5053125;28;20174;-47
2022/10/29 04:59:02;;;;;;;201.90;30.20;;;12.30;99.90;;;;;;5067663;28;20074;-47
2022/10/29 05:01:29;;;;;;;166.32;26.77;;;12.70;99.90;;;;;;5065007;28;20029;-46
2022/10/29 05:03:54;;;;;;;113.47;26.27;;;12.40;99.90;;;;;;5065020;28;20396;-46
2022/10/29 05:06:20;;;;;;;61.40;26.85;;;12.50;99.90;;;;;;5066752;28;20020;-46
2022/10/29 05:08:46;;;;;;;87.20;27.80;;;12.40;99.90;;;;;;5085288;28;20468;-46
2022/10/29 05:11:12;;;;;;;129.75;29.67;;;12.30;99.90;;;;;;5063870;28;20087;-47
2022/10/29 05:13:37;;;;;;;129.90;29.25;;;12.30;99.90;;;;;;5054717;28;20048;-46
2022/10/29 05:16:03;;;;;;;127.68;28.35;;;12.40;99.90;;;;;;5047002;28;20039;-46
2022/10/29 05:18:29;;;;;;;63.55;25.30;;;12.40;99.90;;;;;;5071558;28;20070;-46
2022/10/29 05:20:55;;;;;;;180.38;29.25;;;12.40;99.90;;;;;;5073034;28;20024;-46
2022/10/29 05:23:21;;;;;;;102.72;27.67;;;12.30;99.90;;;;;;5075473;28;20035;-46
2022/10/29 05:25:48;;;;;;;101.45;28.17;;;12.20;99.90;;;;;;5069012;28;20021;-46
2022/10/29 05:28:19;;;;;;;163.75;31.45;;;12.30;99.90;;;;;;5072190;28;20050;-47
2022/10/29 05:30:46;;;;;;;92.53;28.20;;;12.30;99.90;;;;;;5086105;28;20385;-46
2022/10/29 05:33:15;;;;;;;82.50;27.33;;;12.20;99.90;;;;;;5063949;28;20074;-46
2022/10/29 05:35:41;;;;;;;120.35;28.50;;;12.30;99.90;;;;;;5039689;28;20029;-46
2022/10/29 05:38:09;;;;;;;187.35;30.55;;;12.20;99.90;;;;;;5072573;28;20051;-47
2022/10/29 05:40:35;;;;;;;249.30;30.85;;;12.30;99.90;;;;;;5072225;28;20020;-47
2022/10/29 05:43:00;;;;;;;117.35;26.70;;;12.40;99.90;;;;;;5074024;28;20017;-46
2022/10/29 05:45:26;;;;;;;54.00;24.75;;;12.30;99.90;;;;;;5072449;28;20024;-46
2022/10/29 05:47:59;;;;;;;85.30;26.33;;;12.30;99.90;;;;;;5072490;28;20051;-47
2022/10/29 05:50:26;;;;;;;104.22;27.35;;;12.40;99.90;;;;;;5052307;28;20060;-46
2022/10/29 05:53:05;;;;;;;97.53;26.50;;;12.30;99.90;;;;;;5069166;28;20127;-47
2022/10/29 05:55:33;;;;;;;95.60;27.27;;;12.40;99.90;;;;;;5071838;28;20079;-47
2022/10/29 05:58:00;;;;;;;117.45;28.35;;;12.20;99.90;;;;;;5072216;28;20435;-47
2022/10/29 06:00:28;;;;;;;109.50;25.45;;;12.30;99.90;;;;;;5054460;28;20037;-50
2022/10/29 06:02:54;;;;;;;129.63;26.27;;;12.40;99.90;;;;;;5065396;28;20029;-47
2022/10/29 06:05:21;;;;;;;48.55;25.48;;;12.40;99.90;;;;;;5072201;28;20028;-48
2022/10/29 06:07:53;;;;;;;78.50;26.15;;;12.30;99.90;;;;;;5071235;28;20048;-48
2022/10/29 06:10:19;;;;;;;73.30;27.05;;;12.20;99.90;;;;;;5069754;28;20064;-48
2022/10/29 06:12:44;;;;;;;74.57;28.25;;;12.30;99.90;;;;;;5068797;28;20159;-49
2022/10/29 06:15:10;;;;;;;69.45;28.20;;;12.20;99.90;;;;;;5069542;28;20024;-48
2022/10/29 06:17:40;;;;;;;77.15;26.58;;;12.30;99.90;;;;;;5068013;28;20074;-48
2022/10/29 06:20:07;;;;;;;111.82;28.85;;;12.40;99.90;;;;;;5072376;28;20075;-48
2022/10/29 06:22:33;;;;;;;185.73;29.80;;;12.50;99.90;;;;;;5069723;28;20021;-47
2022/10/29 06:24:58;;;;;;;108.25;29.45;;;12.60;99.90;;;;;;5071829;28;20461;-48
2022/10/29 06:27:24;;;;;;;96.97;28.80;;;12.30;99.90;;;;;;5072455;28;20027;-48
2022/10/29 06:29:50;;;;;;;135.40;34.28;;;12.30;99.90;;;;;;5070141;28;20036;-48
2022/10/29 06:32:16;;;;;;;222.45;62.60;;;12.40;99.90;;;;;;5070213;28;20032;-48
2022/10/29 06:34:42;;;;;;;366.13;78.10;;;12.40;99.90;;;;;;5072314;28;20103;-49
2022/10/29 06:37:07;;;;;;;261.85;59.55;;;12.40;99.90;;;;;;5052398;28;20033;-48
2022/10/29 06:39:33;;;;;;;371.40;74.75;;;12.40;99.90;;;;;;5049771;28;20067;-49
2022/10/29 06:41:59;;;;;;;202.23;61.58;;;12.50;99.90;;;;;;5035298;28;20036;-47
2022/10/29 06:44:24;;;;;;;282.20;50.88;;;12.30;99.90;;;;;;5066788;28;20108;-47
2022/10/29 06:46:51;;;;;;;147.27;33.55;;;;;;;;;;5065859;28;20028;-48
2022/10/29 06:49:16;;;;;;;116.45;30.67;;;12.50;99.90;;;;;;5061120;28;20028;-47
2022/10/29 06:51:42;;;;;;;84.90;30.90;;;12.50;99.90;;;;;;5084278;28;20040;-47
2022/10/29 06:54:08;;;;;;;101.95;29.00;;;12.60;99.90;;;;;;5065284;28;20028;-48
2022/10/29 06:56:33;;;;;;;118.07;28.40;;;12.50;99.90;;;;;;5067088;28;20024;-48
2022/10/29 06:58:59;;;;;;;98.63;27.08;;;12.60;99.90;;;;;;5070819;28;20045;-47
2022/10/29 07:01:31;;;;;;;114.65;29.75;;;12.60;99.90;;;;;;5073843;28;20037;-47
2022/10/29 07:03:59;;;;;;;139.25;27.73;;;12.60;99.90;;;;;;5035983;28;20045;-50
2022/10/29 07:06:25;;;;;;;88.50;28.35;;;12.60;99.90;;;;;;5060966;28;20041;-47
2022/10/29 07:08:51;;;;;;;128.85;28.75;;;12.60;99.90;;;;;;5065819;28;20118;-53
2022/10/29 07:11:17;;;;;;;123.85;27.63;;;;;;;;;;5069550;28;20043;-50
2022/10/29 07:13:43;;;;;;;64.05;26.95;;;13.00;99.90;;;;;;5068518;28;20060;-50
2022/10/29 07:16:09;;;;;;;56.38;26.38;;;12.90;99.90;;;;;;5066115;28;20063;-50
2022/10/29 07:18:34;;;;;;;84.15;29.80;;;13.00;99.90;;;;;;5067040;28;20029;-52
2022/10/29 07:21:03;;;;;;;78.03;26.70;;;13.00;99.90;;;;;;5069592;28;20021;-48
2022/10/29 07:23:29;;;;;;;153.43;26.75;;;13.00;99.90;;;;;;5063424;28;20499;-49
2022/10/29 07:25:55;;;;;;;109.05;26.42;;;13.10;99.90;;;;;;5037467;28;20055;-48
2022/10/29 07:28:22;;;;;;;56.05;26.77;;;13.30;99.90;;;;;;5052472;28;20656;-47
2022/10/29 07:30:49;;;;;;;159.48;27.23;;;13.30;99.90;;;;;;5099431;28;20036;-52
2022/10/29 07:33:15;;;;;;;53.45;28.73;;;13.40;99.90;;;;;;5068760;28;20368;-50
2022/10/29 07:35:41;;;;;;;84.72;26.63;;;13.40;99.90;;;;;;5070340;28;20165;-51
2022/10/29 07:38:08;;;;;;;92.57;28.35;;;12.90;99.90;;;;;;5066173;28;20081;-51
2022/10/29 07:40:34;;;;;;;123.22;29.70;;;13.00;99.90;;;;;;5064407;28;20409;-51
2022/10/29 07:43:00;;;;;;;67.68;28.27;;;13.30;99.90;;;;;;5067534;28;20036;-52
2022/10/29 07:45:26;;;;;;;66.75;27.13;;;13.40;99.90;;;;;;5054821;28;20040;-51
2022/10/29 07:48:03;;;;;;;48.72;28.42;;;13.50;99.90;;;;;;5067594;28;20028;-51
2022/10/29 07:50:30;;;;;;;52.55;28.50;;;13.60;99.90;;;;;;5065712;28;20031;-51
2022/10/29 07:52:59;;;;;;;82.90;29.30;;;13.70;99.90;;;;;;5052952;28;20495;-51
2022/10/29 07:55:25;;;;;;;60.78;28.80;;;13.70;99.90;;;;;;5065089;28;20031;-52
2022/10/29 07:58:00;;;;;;;99.88;31.55;;;13.50;99.90;;;;;;5070383;28;20044;-53
2022/10/29 08:00:26;;;;;;;55.58;31.73;;;;;;;;;;5068200;28;20690;-51
2022/10/29 08:02:55;;;;;;;54.17;33.50;;;;;;;;;;5068380;28;20031;-52
2022/10/29 08:05:22;;;;;;;102.57;33.25;;;14.00;99.90;;;;;;5071445;28;20522;-51
2022/10/29 08:07:48;;;;;;;61.90;32.78;;;14.10;99.90;;;;;;5050876;28;20036;-52
2022/10/29 08:10:14;;;;;;;69.88;33.75;;;;;;;;;;5064168;28;20105;-51
2022/10/29 08:12:40;;;;;;;130.25;42.13;;;14.20;99.90;;;;;;5068428;28;20546;-50
2022/10/29 08:15:06;;;;;;;62.75;41.30;;;14.40;99.90;;;;;;5067466;28;20033;-51
2022/10/29 08:17:32;;;;;;;75.05;34.25;;;14.50;99.90;;;;;;5049294;28;20032;-50
2022/10/29 08:19:58;;;;;;;63.40;33.75;;;14.50;99.90;;;;;;5063069;28;20387;-51
2022/10/29 08:22:23;;;;;;;75.30;30.88;;;14.50;99.90;;;;;;5067028;28;20083;-50
2022/10/29 08:24:49;;;;;;;55.60;30.83;;;14.70;99.90;;;;;;5049623;28;20029;-52
2022/10/29 08:27:15;;;;;;;65.15;33.45;;;14.70;99.90;;;;;;5065272;28;20024;-51
2022/10/29 08:29:40;;;;;;;59.35;30.95;;;14.60;99.90;;;;;;5064225;28;20029;-51
2022/10/29 08:32:06;;;;;;;49.25;31.15;;;14.50;99.90;;;;;;5069055;28;20020;-51
2022/10/29 08:34:32;;;;;;;65.88;31.63;;;14.70;99.90;;;;;;5069846;28;20052;-50
2022/10/29 08:36:57;;;;;;;58.95;30.23;;;14.30;99.90;;;;;;5067521;28;20024;-52
2022/10/29 08:39:23;;;;;;;53.58;32.92;;;14.50;99.90;;;;;;5069678;28;20471;-51
2022/10/29 08:42:14;;;;;;;47.30;32.22;;;14.60;99.90;;;;;;5067287;28;20052;-51
2022/10/29 08:58:26;;;;;;;52.78;35.28;;;14.60;99.90;;;;;;5101839;27;20458;-52
2022/10/29 09:00:55;;;;;;;50.78;33.88;;;;;;;;;;5064156;28;20033;-52
2022/10/29 09:03:21;;;;;;;51.92;35.33;;;15.10;99.90;;;;;;5088221;28;20036;-54
2022/10/29 09:06:35;;;;;;;52.45;35.42;;;15.10;99.90;;;;;;5097310;28;20038;-54
2022/10/29 09:09:19;;;;;;;52.15;35.15;;;15.30;99.90;;;;;;5050935;28;20031;-55
2022/10/29 09:12:03;;;;;;;56.33;37.58;;;15.20;99.90;;;;;;5043015;28;20037;-53
2022/10/29 09:15:09;;;;;;;55.47;37.50;;;15.00;99.90;;;;;;5044565;28;20041;-55
2022/10/29 09:17:44;;;;;;;56.80;38.92;;;15.20;99.90;;;;;;5025520;28;20392;-53
2022/10/29 09:20:27;;;;;;;57.67;38.63;;;15.40;99.90;;;;;;5022477;28;20124;-52
2022/10/29 09:23:06;;;;;;;52.90;36.85;;;15.30;99.90;;;;;;5024975;28;20038;-51
2022/10/29 09:26:00;;;;;;;52.85;38.28;;;15.40;99.90;;;;;;4993485;28;20090;-51
2022/10/29 09:28:35;;;;;;;57.17;38.33;;;15.00;99.90;;;;;;5025679;28;20042;-50
2022/10/29 09:31:16;;;;;;;59.38;40.10;;;15.40;99.90;;;;;;5020371;28;20479;-53
2022/10/29 09:33:45;;;;;;;61.15;39.42;;;15.40;99.90;;;;;;5024140;28;20093;-53
2022/10/29 09:36:20;;;;;;;73.13;41.55;;;15.60;99.90;;;;;;5026776;28;20132;-50
2022/10/29 09:38:55;;;;;;;80.28;44.28;;;15.50;99.90;;;;;;5026565;28;20146;-55
2022/10/29 09:41:24;;;;;;;64.53;42.30;;;15.20;99.90;;;;;;5024370;28;20049;-52
2022/10/29 09:44:20;;;;;;;62.88;41.28;;;15.20;99.90;;;;;;5078808;28;20028;-50
2022/10/29 09:47:12;;;;;;;71.13;42.55;;;15.60;99.90;;;;;;5023415;28;20074;-53
2022/10/29 09:49:56;;;;;;;72.88;42.95;;;15.60;99.90;;;;;;5025931;28;20029;-49
2022/10/29 09:52:25;;;;;;;63.88;41.35;;;15.40;99.90;;;;;;5029907;28;20087;-52
2022/10/29 09:54:53;;;;;;;70.93;40.30;;;15.50;99.90;;;;;;5039922;28;20037;-50
2022/10/29 09:57:22;;;;;;;71.50;43.75;;;15.40;99.90;;;;;;5031239;28;20045;-52
2022/10/29 09:59:55;;;;;;;80.88;43.78;;;15.50;99.90;;;;;;5039500;28;20080;-52
2022/10/29 10:02:32;;;;;;;79.63;53.72;;;15.80;99.90;;;;;;5042386;28;20071;-53
2022/10/29 10:05:15;;;;;;;65.03;46.75;;;15.90;99.90;;;;;;5038701;28;20049;-50
2022/10/29 10:07:41;;;;;;;74.68;51.65;;;16.30;99.90;;;;;;5036997;28;20041;-54
2022/10/29 10:10:21;;;;;;;68.70;46.65;;;16.40;99.90;;;;;;5041381;28;20060;-51
2022/10/29 10:12:49;;;;;;;70.00;46.30;;;16.40;99.90;;;;;;5035944;28;20507;-55
2022/10/29 10:15:15;;;;;;;69.20;42.78;;;16.70;99.90;;;;;;5032815;28;20029;-52
2022/10/29 10:17:52;;;;;;;77.15;63.08;;;16.40;99.90;;;;;;5040991;28;20385;-55
2022/10/29 10:20:26;;;;;;;63.65;44.60;;;16.70;99.90;;;;;;5016724;28;20037;-54
2022/10/29 10:22:52;;;;;;;66.97;44.20;;;16.60;99.90;;;;;;5033415;28;20143;-54
2022/10/29 10:25:38;;;;;;;69.50;44.35;;;16.70;99.90;;;;;;5077511;28;20504;-52
2022/10/29 10:28:28;;;;;;;71.50;46.33;;;16.80;99.90;;;;;;5078216;28;20384;-54
2022/10/29 10:31:03;;;;;;;72.82;45.13;;;16.80;99.90;;;;;;5074212;28;20055;-50
2022/10/29 10:33:34;;;;;;;65.15;43.03;;;16.70;99.90;;;;;;5062269;28;20125;-55
2022/10/29 10:36:05;;;;;;;69.97;46.50;;;16.90;99.90;;;;;;5065459;28;20103;-53
2022/10/29 10:53:19;;;;;;;67.53;49.03;;;17.40;99.90;;;;;;5088320;27;20712;-49
2022/10/29 10:55:52;;;;;;;68.65;46.50;;;;;;;;;;5082287;28;20033;-53
2022/10/29 10:58:35;;;;;;;74.38;50.42;;;;;;;;;;5080168;28;20051;-54
2022/10/29 11:01:15;;;;;;;78.18;54.05;;;19.50;99.90;;;;;;5076073;28;20032;-48
2022/10/29 11:03:47;;;;;;;75.88;53.00;;;19.60;99.90;;;;;;5088411;28;20032;-54
2022/10/29 11:06:27;;;;;;;83.85;60.45;;;20.50;99.90;;;;;;5074615;28;20035;-53
2022/10/29 11:09:05;;;;;;;90.93;61.53;;;20.60;99.90;;;;;;5077690;28;20017;-50
2022/10/29 11:11:39;;;;;;;91.20;60.20;;;21.50;99.90;;;;;;5080252;28;20395;-55
2022/10/29 11:14:21;;;;;;;94.38;61.05;;;22.10;99.90;;;;;;5081568;28;20106;-46
2022/10/29 11:16:53;;;;;;;89.15;62.53;;;21.50;99.90;;;;;;5082424;28;20025;-46
2022/10/29 11:19:31;;;;;;;82.65;57.58;;;21.60;99.90;;;;;;5079714;28;20502;-47
2022/10/29 11:22:08;;;;;;;93.50;64.38;;;22.40;99.90;;;;;;5082184;28;20125;-47
2022/10/29 11:24:50;;;;;;;100.32;66.45;;;22.00;99.90;;;;;;5070910;28;20024;-53
2022/10/29 11:27:27;;;;;;;118.65;81.60;;;22.80;99.90;;;;;;5071814;28;20035;-51
2022/10/29 11:30:03;;;;;;;127.57;83.50;;;22.90;99.90;;;;;;5082951;28;20024;-51
2022/10/29 11:32:56;;;;;;;130.15;86.03;;;23.80;99.90;;;;;;5082633;28;20054;-52
2022/10/29 11:35:41;;;;;;;112.43;76.22;;;23.80;99.90;;;;;;5078776;28;20032;-50
2022/10/29 11:38:22;;;;;;;85.85;62.33;;;23.80;99.90;;;;;;5084199;28;20075;-49
2022/10/29 11:41:03;;;;;;;76.10;54.70;;;24.00;99.90;;;;;;5081971;28;20047;-52
2022/10/29 11:43:31;;;;;;;63.90;46.35;;;24.00;99.90;;;;;;5081569;28;20032;-51
2022/10/29 11:45:59;;;;;;;63.42;46.20;;;;;;;;;;5079318;28;20472;-49
2022/10/29 11:48:38;;;;;;;66.20;45.35;;;24.30;99.90;;;;;;5078431;28;20013;-50
2022/10/29 11:51:32;;;;;;;68.10;43.90;;;24.50;99.90;;;;;;5081675;28;20124;-49
2022/10/29 11:54:14;;;;;;;63.63;44.22;;;24.40;99.90;;;;;;4995606;28;20046;-50
2022/10/29 11:56:47;;;;;;;66.40;47.15;;;;;;;;;;4959956;28;20030;-51
2022/10/29 11:59:22;;;;;;;62.28;45.30;;;24.60;99.90;;;;;;4997531;28;20092;-51
2022/10/29 12:01:57;;;;;;;61.60;43.17;;;24.40;99.90;;;;;;4981582;28;20065;-50
2022/10/29 12:04:31;;;;;;;58.03;41.92;;;24.60;99.90;;;;;;4995393;28;20053;-52
2022/10/29 12:07:09;;;;;;;56.15;41.45;;;24.80;99.90;;;;;;4996851;28;20080;-49
2022/10/29 12:10:08;;;;;;;58.45;40.67;;;24.80;99.90;;;;;;5006598;28;20228;-50
2022/10/29 12:13:14;;;;;;;56.83;40.42;;;24.40;99.90;;;;;;4998749;28;20131;-49
2022/10/29 12:15:55;;;;;;;41.65;32.78;;;24.40;99.90;;;;;;4952496;29;20050;-49
2022/10/29 12:18:28;;;;;;;39.25;30.67;;;24.40;99.90;;;;;;4904032;29;20460;-49
2022/10/29 12:21:04;;;;;;;43.17;31.23;;;23.90;99.90;;;;;;4938196;29;20434;-49
2022/10/29 12:23:54;;;;;;;40.45;31.17;;;23.90;99.90;;;;;;4953255;29;20026;-49
2022/10/29 12:26:42;;;;;;;42.53;32.63;;;24.00;99.90;;;;;;4951840;29;20063;-51
2022/10/29 12:29:23;;;;;;;44.97;33.78;;;23.90;99.90;;;;;;4950248;29;20043;-50
2022/10/29 12:32:16;;;;;;;44.00;33.72;;;24.60;99.90;;;;;;5022466;28;20045;-51
2022/10/29 12:34:54;;;;;;;44.05;32.75;;;24.50;99.90;;;;;;5031129;28;20479;-52
2022/10/29 12:37:52;;;;;;;39.80;31.33;;;24.60;99.90;;;;;;5030567;28;20104;-52
2022/10/29 12:40:27;;;;;;;39.05;30.88;;;24.60;99.90;;;;;;4939238;29;20051;-53
2022/10/29 12:42:54;;;;;;;39.67;30.70;;;24.00;99.90;;;;;;4938172;29;20039;-51
2022/10/29 12:45:31;;;;;;;38.92;29.17;;;23.80;99.90;;;;;;4934550;29;20446;-50
2022/10/29 12:48:07;;;;;;;38.75;29.27;;;23.50;99.90;;;;;;4949440;29;20036;-50
2022/10/29 12:50:56;;;;;;;38.85;29.73;;;23.60;99.90;;;;;;4938265;29;20047;-50
2022/10/29 12:53:59;;;;;;;43.75;30.30;;;24.00;99.90;;;;;;4972744;28;20070;-51
2022/10/29 12:56:26;;;;;;;;;;;23.50;99.90;;;;;;4951178;28;20054;-49
2022/10/29 12:58:56;;;;;;;42.97;32.58;;;23.60;99.90;;;;;;4955935;28;19941;-50
2022/10/29 13:01:27;;;;;;;43.33;33.17;;;23.70;99.90;;;;;;4953240;28;20090;-49
2022/10/29 13:03:56;;;;;;;48.35;32.97;;;24.10;99.90;;;;;;4951001;28;20126;-49
2022/10/29 13:06:41;;;;;;;46.45;32.08;;;23.70;99.90;;;;;;4952062;28;20487;-49
2022/10/29 13:09:25;;;;;;;42.13;32.53;;;24.00;99.90;;;;;;4954291;28;20118;-49
2022/10/29 13:11:56;;;;;;;44.50;32.78;;;24.50;99.90;;;;;;4951656;28;20046;-49
2022/10/29 13:14:33;;;;;;;46.20;34.60;;;24.40;99.90;;;;;;4952106;28;20039;-49
2022/10/29 13:17:02;;;;;;;51.20;37.50;;;24.40;99.90;;;;;;4958442;28;20128;-49
2022/10/29 13:19:45;;;;;;;49.70;36.70;;;24.40;99.90;;;;;;4991705;28;20030;-49
2022/10/29 13:22:13;;;;;;;58.10;38.75;;;24.10;99.90;;;;;;4988162;28;20085;-50
2022/10/29 13:24:40;;;;;;;52.45;38.63;;;24.00;99.90;;;;;;4990996;28;20038;-51
2022/10/29 13:27:21;;;;;;;57.40;40.80;;;23.70;99.90;;;;;;4974292;28;20045;-50
2022/10/29 13:29:49;;;;;;;58.78;41.90;;;23.50;99.90;;;;;;4989270;28;20033;-50
2022/10/29 13:32:37;;;;;;;57.47;42.33;;;24.20;99.90;;;;;;4993164;28;20030;-49
2022/10/29 13:35:17;;;;;;;62.20;42.65;;;24.00;99.90;;;;;;5029654;28;20478;-49
2022/10/29 13:37:45;;;;;;;58.38;41.63;;;24.00;99.90;;;;;;5036796;28;20090;-49
2022/10/29 13:40:30;;;;;;;57.55;40.42;;;23.90;99.90;;;;;;5073409;28;20028;-49
2022/10/29 13:43:09;;;;;;;48.05;36.00;;;24.00;99.90;;;;;;5044800;28;20047;-49
2022/10/29 13:45:38;;;;;;;46.95;34.60;;;23.80;99.90;;;;;;5072935;28;20043;-49
2022/10/29 13:48:32;;;;;;;36.80;28.20;;;23.70;99.90;;;;;;5080008;28;20099;-50
2022/10/29 13:51:02;;;;;;;38.30;29.00;;;23.40;99.90;;;;;;5036199;28;20039;-51
2022/10/29 13:54:10;;;;;;;38.00;27.35;;;23.20;99.90;;;;;;5029892;28;20076;-50
2022/10/29 13:56:50;;;;;;;35.20;26.85;;;22.90;99.90;;;;;;4973676;28;20038;-50
2022/10/29 13:59:33;;;;;;;36.03;28.08;;;22.90;99.90;;;;;;4985900;28;20469;-50
2022/10/29 14:02:38;;;;;;;32.45;23.88;;;23.20;99.90;;;;;;4998820;28;20165;-50
2022/10/29 14:05:29;;;;;;;33.13;26.70;;;23.30;99.90;;;;;;4972880;28;20037;-49
2022/10/29 14:08:10;;;;;;;38.75;27.00;;;23.10;99.90;;;;;;4963352;28;20034;-50
2022/10/29 14:10:39;;;;;;;28.88;22.77;;;23.00;99.90;;;;;;4989192;28;20053;-49
2022/10/29 14:13:19;;;;;;;28.88;21.50;;;23.00;99.90;;;;;;4990244;28;20654;-51
2022/10/29 14:16:01;;;;;;;25.80;20.08;;;23.00;99.90;;;;;;4978087;28;20506;-50
2022/10/29 14:18:27;;;;;;;;;;;22.70;99.90;;;;;;4990012;28;20147;-50
2022/10/29 14:20:55;;;;;;;88.60;80.55;;;22.70;99.90;;;;;;4987796;28;19949;-49
2022/10/29 14:23:24;;;;;;;36.78;32.50;;;22.60;99.90;;;;;;4942413;28;20043;-51
2022/10/29 14:25:52;;;;;;;36.90;24.65;;;22.80;99.90;;;;;;4992217;28;20050;-49
2022/10/29 14:28:26;;;;;;;31.67;24.33;;;22.90;99.90;;;;;;4991094;28;20070;-49
2022/10/29 14:31:01;;;;;;;33.15;24.02;;;23.10;99.90;;;;;;4989748;28;20031;-51
2022/10/29 14:33:36;;;;;;;28.45;21.90;;;22.90;99.90;;;;;;5061801;28;20024;-49